Fort Benton, Montana
Current Conditions -  °F | °C
As of 12:56 AM on Friday 31 Oct 2014 (Local Time) from KGFA Reporting Station
Broken Clouds Broken Clouds  
Wind Chill: 39°   Ceiling: 24000
Heat Index: 39°   Visibility: 10mi
Dew Point: 36°   Wind: 3mph
Humidity: 88%   Direction: 30°NNE
Pressure: 30"   Gusts: NA
Location:  47.82°N, 110.67°W
Report Text: KGFA 310656Z AUTO 03003KT 10SM SCT200 BKN240 04/02 A3000 RMK AO2 SLP175 T00380020
Loading
Personal Weather Stations






























Interactive Weather Map
Tropical Storm Tracking
New forecast layout! Learn more

10-Day Weather Forecast

Advertisements
Track Severe Weather on mobile